createdAt,value
2023-03-18T00:01:01.485Z,2.87
2023-03-18T00:03:30.196Z,2.50
2023-03-18T00:06:05.205Z,2.03
2023-03-18T00:08:35.508Z,2.67
2023-03-18T00:11:05.545Z,3.00
2023-03-18T00:13:34.840Z,3.27
2023-03-18T00:16:04.313Z,2.50
2023-03-18T00:18:34.380Z,3.73
2023-03-18T00:21:03.900Z,2.70
2023-03-18T00:23:32.575Z,3.67
2023-03-18T00:26:03.546Z,2.70
2023-03-18T00:28:32.927Z,3.27
2023-03-18T00:31:05.194Z,2.87
2023-03-18T00:33:34.852Z,3.07
2023-03-18T00:36:04.331Z,2.73
2023-03-18T00:38:36.094Z,2.10
2023-03-18T00:41:11.716Z,1.90
2023-03-18T00:43:46.178Z,2.47
2023-03-18T00:46:16.465Z,2.47
2023-03-18T00:48:45.090Z,2.60
2023-03-18T00:51:17.295Z,3.00
2023-03-18T00:53:47.277Z,2.63
2023-03-18T00:56:18.127Z,2.50
2023-03-18T00:58:47.217Z,2.70
2023-03-18T01:01:20.615Z,2.10
2023-03-18T01:03:50.221Z,3.20
2023-03-18T01:06:20.558Z,2.60
2023-03-18T01:08:49.096Z,2.63
2023-03-18T01:11:28.987Z,2.93
2023-03-18T01:13:59.646Z,2.87
2023-03-18T01:16:28.224Z,2.83
2023-03-18T01:18:57.427Z,2.70
2023-03-18T01:21:26.010Z,2.30
2023-03-18T01:23:54.666Z,2.70
2023-03-18T01:26:23.912Z,2.70
2023-03-18T01:28:52.740Z,3.13
2023-03-18T01:31:24.291Z,2.87
2023-03-18T01:33:53.296Z,2.50
2023-03-18T01:36:22.195Z,2.50
2023-03-18T01:38:51.469Z,2.50
2023-03-18T01:41:20.611Z,2.40
2023-03-18T01:43:49.710Z,2.40
2023-03-18T01:46:37.094Z,2.57
2023-03-18T01:49:07.904Z,1.93
2023-03-18T01:51:36.837Z,2.80
2023-03-18T01:54:06.875Z,2.57
2023-03-18T01:56:37.485Z,2.37
2023-03-18T01:59:09.002Z,2.40
2023-03-18T02:01:40.728Z,2.53
2023-03-18T02:04:10.554Z,2.30
2023-03-18T02:06:39.675Z,2.23
2023-03-18T02:09:08.472Z,2.40
2023-03-18T02:11:39.873Z,2.67
2023-03-18T02:14:10.062Z,2.27
2023-03-18T02:16:44.245Z,2.27
2023-03-18T02:19:15.904Z,2.23
2023-03-18T02:21:48.787Z,2.43
2023-03-18T02:24:21.906Z,2.67
2023-03-18T02:26:53.638Z,2.23
2023-03-18T02:29:25.706Z,2.50
2023-03-18T02:31:54.581Z,2.30
2023-03-18T02:34:24.998Z,3.07
2023-03-18T02:36:53.772Z,3.30
2023-03-18T02:39:24.265Z,3.17
2023-03-18T02:41:53.410Z,2.57
2023-03-18T02:44:23.385Z,2.60
2023-03-18T02:46:55.384Z,2.23
2023-03-18T02:49:24.757Z,2.67
2023-03-18T02:51:53.971Z,2.73
2023-03-18T02:54:25.963Z,2.97
2023-03-18T02:56:54.746Z,2.10
2023-03-18T02:59:25.807Z,2.30
2023-03-18T03:01:55.356Z,1.90
2023-03-18T03:04:25.105Z,1.90
2023-03-18T03:06:54.508Z,2.63
2023-03-18T03:09:23.564Z,2.70
2023-03-18T03:11:52.557Z,2.00
2023-03-18T03:14:21.689Z,3.23
2023-03-18T03:16:52.087Z,2.40
2023-03-18T03:19:21.624Z,2.30
2023-03-18T03:21:50.333Z,2.30
2023-03-18T03:24:19.002Z,2.33
2023-03-18T03:26:48.853Z,2.67
2023-03-18T03:29:17.465Z,2.33
2023-03-18T03:31:46.566Z,1.77
2023-03-18T03:34:16.678Z,2.80
2023-03-18T03:36:45.454Z,2.30
2023-03-18T03:39:14.779Z,2.43
2023-03-18T03:41:43.258Z,2.77
2023-03-18T03:44:12.089Z,2.07
2023-03-18T03:46:40.738Z,1.90
2023-03-18T03:49:09.435Z,2.20
2023-03-18T03:51:39.425Z,2.13
2023-03-18T03:54:08.347Z,2.50
2023-03-18T03:56:36.925Z,1.80
2023-03-18T03:59:05.863Z,2.27
2023-03-18T04:01:34.879Z,1.80
2023-03-18T04:04:04.471Z,1.70
2023-03-18T04:06:33.272Z,2.40
2023-03-18T04:09:04.499Z,2.20
2023-03-18T04:11:33.677Z,2.40
2023-03-18T04:14:02.231Z,2.50
2023-03-18T04:16:30.944Z,2.13
2023-03-18T04:18:59.812Z,2.30
2023-03-18T04:21:56.964Z,1.87
2023-03-18T04:24:27.451Z,2.20
2023-03-18T04:26:55.995Z,1.87
2023-03-18T04:29:24.517Z,2.17
2023-03-18T04:31:53.390Z,2.17
2023-03-18T04:34:22.311Z,2.53
2023-03-18T04:36:50.888Z,2.63
2023-03-18T04:39:19.654Z,1.90
2023-03-18T04:41:50.400Z,1.57
2023-03-18T04:44:19.522Z,2.20
2023-03-18T04:46:48.038Z,1.80
2023-03-18T04:49:16.815Z,1.93
2023-03-18T04:51:45.895Z,1.67
2023-03-18T04:54:15.366Z,1.93
2023-03-18T04:56:45.231Z,1.83
2023-03-18T04:59:15.234Z,2.60
2023-03-18T05:01:44.725Z,2.00
2023-03-18T05:04:13.678Z,1.90
2023-03-18T05:06:43.011Z,1.97
2023-03-18T05:09:12.813Z,1.37
2023-03-18T05:11:41.474Z,1.77
2023-03-18T05:14:10.109Z,2.60
2023-03-18T05:16:41.162Z,2.13
2023-03-18T05:19:09.865Z,2.10
2023-03-18T05:21:39.034Z,1.90
2023-03-18T05:24:08.984Z,1.77
2023-03-18T05:26:39.161Z,1.60
2023-03-18T05:29:09.417Z,1.63
2023-03-18T05:31:38.344Z,2.10
2023-03-18T05:34:09.011Z,2.03
2023-03-18T05:36:37.465Z,1.53
2023-03-18T05:39:06.010Z,1.43
2023-03-18T05:41:35.145Z,1.37
2023-03-18T05:44:03.651Z,1.60
2023-03-18T05:46:32.843Z,1.70
2023-03-18T05:49:01.569Z,1.70
2023-03-18T05:51:32.410Z,1.93
2023-03-18T05:54:04.229Z,2.33
2023-03-18T05:56:33.360Z,1.37
2023-03-18T05:59:02.239Z,1.77
2023-03-18T06:01:33.464Z,1.50
2023-03-18T06:04:08.986Z,1.60
2023-03-18T06:06:45.617Z,1.63
2023-03-18T06:09:15.592Z,1.70
2023-03-18T06:11:44.548Z,1.47
2023-03-18T06:14:13.795Z,1.40
2023-03-18T06:16:48.087Z,1.73
2023-03-18T06:19:16.639Z,1.43
2023-03-18T06:21:48.247Z,1.20
2023-03-18T06:24:18.593Z,1.23
2023-03-18T06:26:47.226Z,2.93
2023-03-18T06:29:16.431Z,1.60
2023-03-18T06:31:45.952Z,1.30
2023-03-18T06:34:16.476Z,1.37
2023-03-18T06:36:46.780Z,1.80
2023-03-18T06:39:15.185Z,1.10
2023-03-18T06:41:43.538Z,1.20
2023-03-18T06:44:14.731Z,1.30
2023-03-18T06:46:44.046Z,1.30
2023-03-18T06:49:15.153Z,1.20
2023-03-18T06:51:43.645Z,1.40
2023-03-18T06:54:14.866Z,1.43
2023-03-18T06:56:46.721Z,1.90
2023-03-18T06:59:15.500Z,1.60
2023-03-18T07:01:45.101Z,1.67
2023-03-18T07:04:13.596Z,1.30
2023-03-18T07:06:42.066Z,1.27
2023-03-18T07:09:11.218Z,1.90
2023-03-18T07:11:42.142Z,1.50
2023-03-18T07:14:11.915Z,2.07
2023-03-18T07:16:40.578Z,1.40
2023-03-18T07:19:09.963Z,2.13
2023-03-18T07:21:39.823Z,1.50
2023-03-18T07:24:09.318Z,1.27
2023-03-18T07:26:52.127Z,1.70
2023-03-18T07:29:31.619Z,1.10
2023-03-18T07:32:00.229Z,1.53
2023-03-18T07:34:31.202Z,1.80
2023-03-18T07:37:00.088Z,1.67
2023-03-18T07:39:28.784Z,1.20
2023-03-18T07:41:58.477Z,1.77
2023-03-18T07:44:42.526Z,1.43
2023-03-18T07:47:11.970Z,1.30
2023-03-18T07:49:41.565Z,1.23
2023-03-18T07:52:15.029Z,1.47
2023-03-18T07:54:43.886Z,1.00
2023-03-18T07:57:14.186Z,1.43
2023-03-18T08:00:01.421Z,1.40
2023-03-18T08:02:32.306Z,1.30
2023-03-18T08:05:00.854Z,1.60
2023-03-18T08:07:36.629Z,1.57
2023-03-18T08:10:06.772Z,1.53
2023-03-18T08:12:51.252Z,1.10
2023-03-18T08:15:22.000Z,1.00
2023-03-18T08:17:52.693Z,1.30
2023-03-18T08:20:21.612Z,1.47
2023-03-18T08:22:50.421Z,1.30
2023-03-18T08:25:19.410Z,1.30
2023-03-18T08:27:48.096Z,1.27
2023-03-18T08:30:16.987Z,0.90
2023-03-18T08:32:46.575Z,1.47
2023-03-18T08:35:17.692Z,1.10
2023-03-18T08:37:47.474Z,1.50
2023-03-18T08:40:17.095Z,1.17
2023-03-18T08:42:47.386Z,1.50
2023-03-18T08:45:17.039Z,1.50
2023-03-18T08:47:47.564Z,1.17
2023-03-18T08:50:23.239Z,1.37
2023-03-18T08:52:52.598Z,1.10
2023-03-18T08:55:22.085Z,1.23
2023-03-18T08:57:53.233Z,0.73
2023-03-18T09:00:25.477Z,1.30
2023-03-18T09:02:54.771Z,1.30
2023-03-18T09:05:25.560Z,1.40
2023-03-18T09:07:55.025Z,1.40
2023-03-18T09:10:30.154Z,0.90
2023-03-18T09:12:59.381Z,1.10
2023-03-18T09:15:28.454Z,1.33
2023-03-18T09:18:11.179Z,1.60
2023-03-18T09:20:45.511Z,1.20
2023-03-18T09:23:15.897Z,1.20
2023-03-18T09:25:50.383Z,1.23
2023-03-18T09:28:19.080Z,1.60
2023-03-18T09:30:48.365Z,1.20
2023-03-18T09:33:16.792Z,1.20
2023-03-18T09:35:46.872Z,1.50
2023-03-18T09:38:18.702Z,1.23
2023-03-18T09:40:52.843Z,1.33
2023-03-18T09:43:36.603Z,1.20
2023-03-18T09:46:09.994Z,1.50
2023-03-18T09:48:46.477Z,0.77
2023-03-18T09:51:22.218Z,1.40
2023-03-18T09:53:58.374Z,1.53
2023-03-18T09:56:29.064Z,1.20
2023-03-18T09:59:00.175Z,1.30
2023-03-18T10:01:29.767Z,1.10
2023-03-18T10:04:02.150Z,0.80
2023-03-18T10:06:33.020Z,1.27
2023-03-18T10:09:06.239Z,1.63
2023-03-18T10:11:35.966Z,1.20
2023-03-18T10:14:20.804Z,1.07
2023-03-18T10:17:01.169Z,1.07
2023-03-18T10:19:30.312Z,1.13
2023-03-18T10:22:09.588Z,1.00
2023-03-18T10:24:40.531Z,1.20
2023-03-18T10:27:12.393Z,1.10
2023-03-18T10:29:43.833Z,0.97
2023-03-18T10:32:17.449Z,0.70
2023-03-18T10:34:51.231Z,0.67
2023-03-18T10:37:25.974Z,1.10
2023-03-18T10:39:55.125Z,0.83
2023-03-18T10:42:25.767Z,1.00
2023-03-18T10:44:54.800Z,0.90
2023-03-18T10:47:24.978Z,1.07
2023-03-18T10:50:00.073Z,0.70
2023-03-18T10:52:37.186Z,1.20
2023-03-18T10:55:06.089Z,1.60
2023-03-18T10:57:46.951Z,0.90
2023-03-18T11:00:23.987Z,1.20
2023-03-18T11:02:52.606Z,1.13
2023-03-18T11:05:25.144Z,1.07
2023-03-18T11:08:01.774Z,1.13
2023-03-18T11:10:45.799Z,1.03
2023-03-18T11:13:17.764Z,0.90
2023-03-18T11:15:51.167Z,1.07
2023-03-18T11:18:36.222Z,1.23
2023-03-18T11:21:13.038Z,0.90
2023-03-18T11:23:56.538Z,1.10
2023-03-18T11:26:26.673Z,1.00
2023-03-18T11:28:56.898Z,1.10
2023-03-18T11:31:26.640Z,1.17
2023-03-18T11:33:58.848Z,1.40
2023-03-18T11:36:32.462Z,0.90
2023-03-18T11:39:05.926Z,1.07
2023-03-18T11:41:34.783Z,1.13
2023-03-18T11:44:04.733Z,1.10
2023-03-18T11:46:36.236Z,1.13
2023-03-18T11:49:06.296Z,1.27
2023-03-18T11:51:45.825Z,1.27
2023-03-18T11:54:21.244Z,0.90
2023-03-18T11:56:52.141Z,1.07
2023-03-18T11:59:38.394Z,1.33
2023-03-18T12:02:19.327Z,1.00
2023-03-18T12:04:54.369Z,0.80
2023-03-18T12:07:30.512Z,0.93
2023-03-18T12:10:28.515Z,1.00
2023-03-18T12:13:06.788Z,1.23
2023-03-18T12:15:38.767Z,1.13
2023-03-18T12:18:14.515Z,1.23
2023-03-18T12:20:46.583Z,0.97
2023-03-18T12:23:21.221Z,1.10
2023-03-18T12:26:10.737Z,1.57
2023-03-18T12:29:02.891Z,1.00
2023-03-18T12:31:42.605Z,0.90
2023-03-18T12:34:16.011Z,1.03
2023-03-18T12:36:51.204Z,1.27
2023-03-18T12:39:37.296Z,1.00
2023-03-18T12:42:09.280Z,0.80
2023-03-18T12:44:48.985Z,1.43
2023-03-18T12:47:20.759Z,1.03
2023-03-18T12:49:52.876Z,0.93
2023-03-18T12:52:26.274Z,1.00
2023-03-18T12:54:59.598Z,1.03
2023-03-18T12:57:30.305Z,0.80
2023-03-18T13:00:10.961Z,0.80
2023-03-18T13:02:44.402Z,1.43
2023-03-18T13:05:20.879Z,1.03
2023-03-18T13:07:51.907Z,1.20
2023-03-18T13:10:22.572Z,0.60
2023-03-18T13:12:53.384Z,1.33
2023-03-18T13:15:28.457Z,1.30
2023-03-18T13:18:09.666Z,1.00
2023-03-18T13:20:40.713Z,1.10
2023-03-18T13:23:19.139Z,1.60
2023-03-18T13:26:01.494Z,1.63
2023-03-18T13:34:31.655Z,0.97
2023-03-18T13:37:19.652Z,1.23
2023-03-18T13:40:03.420Z,1.10
2023-03-18T13:42:33.890Z,1.20
2023-03-18T13:45:07.017Z,1.20
2023-03-18T13:47:38.571Z,1.07
2023-03-18T13:50:09.159Z,1.13
2023-03-18T13:52:47.862Z,1.00
2023-03-18T13:55:23.592Z,1.00
2023-03-18T13:58:11.144Z,1.27
2023-03-18T14:00:42.354Z,1.10
2023-03-18T14:03:30.744Z,0.80
2023-03-18T14:06:30.068Z,0.83
2023-03-18T14:09:00.074Z,1.53
2023-03-18T14:11:45.277Z,1.23
2023-03-18T14:14:37.051Z,1.10
2023-03-18T14:17:06.476Z,0.80
2023-03-18T14:19:35.039Z,1.50
2023-03-18T14:22:11.914Z,1.10
2023-03-18T14:25:05.930Z,0.73
2023-03-18T14:27:34.856Z,1.13
2023-03-18T14:30:20.410Z,0.63
2023-03-18T14:32:59.285Z,1.10
2023-03-18T14:35:30.043Z,1.17
2023-03-18T14:38:15.575Z,1.27
2023-03-18T14:44:11.103Z,1.30
2023-03-18T14:46:43.193Z,1.20
2023-03-18T14:49:32.536Z,1.30
2023-03-18T14:52:12.191Z,0.77
2023-03-18T14:54:46.401Z,1.00
2023-03-18T14:57:17.296Z,1.03
2023-03-18T14:59:51.059Z,0.90
2023-03-18T15:02:26.067Z,1.00
2023-03-18T15:04:59.453Z,1.37
2023-03-18T15:07:33.485Z,0.80
2023-03-18T15:10:11.393Z,0.70
2023-03-18T15:12:46.059Z,1.57
2023-03-18T15:15:25.241Z,0.90
2023-03-18T15:17:55.206Z,1.00
2023-03-18T15:23:12.204Z,1.30
2023-03-18T15:32:38.365Z,1.43
2023-03-18T15:35:16.929Z,1.40
2023-03-18T15:37:46.476Z,1.30
2023-03-18T15:40:20.977Z,1.33
2023-03-18T15:42:50.500Z,1.47
2023-03-18T15:45:21.688Z,1.50
2023-03-18T15:47:50.716Z,1.23
2023-03-18T15:50:27.396Z,1.13
2023-03-18T15:53:07.128Z,1.33
2023-03-18T15:55:37.744Z,1.40
2023-03-18T15:58:11.286Z,1.03
2023-03-18T16:00:41.028Z,1.07
2023-03-18T16:03:15.629Z,1.17
2023-03-18T16:05:46.049Z,1.33
2023-03-18T16:08:15.714Z,1.27
2023-03-18T16:11:03.632Z,1.47
2023-03-18T16:13:41.269Z,1.40
2023-03-18T16:16:18.865Z,1.47
2023-03-18T16:18:54.340Z,1.77
2023-03-18T16:22:00.307Z,2.37
2023-03-18T16:24:45.659Z,1.40
2023-03-18T16:27:31.872Z,1.13
2023-03-18T16:30:03.408Z,1.00
2023-03-18T16:32:33.247Z,1.23
2023-03-18T16:35:11.677Z,1.33
2023-03-18T16:37:44.151Z,3.07
2023-03-18T16:40:19.631Z,1.30
2023-03-18T16:42:49.831Z,0.93
2023-03-18T16:45:20.405Z,2.17
2023-03-18T16:47:52.486Z,1.27
2023-03-18T16:50:23.820Z,1.00
2023-03-18T16:52:53.736Z,1.50
2023-03-18T16:55:28.763Z,1.00
2023-03-18T16:58:02.299Z,1.57
2023-03-18T17:00:32.982Z,1.57
2023-03-18T17:03:09.700Z,1.03
2023-03-18T17:05:52.741Z,1.70
2023-03-18T17:08:22.190Z,2.50
2023-03-18T17:11:11.181Z,1.77
2023-03-18T17:13:40.784Z,1.77
2023-03-18T17:16:20.158Z,1.27
2023-03-18T17:18:49.824Z,1.80
2023-03-18T17:21:28.665Z,2.20
2023-03-18T17:23:57.745Z,1.47
2023-03-18T17:26:30.030Z,1.83
2023-03-18T17:28:59.307Z,1.80
2023-03-18T17:31:28.604Z,2.50
2023-03-18T17:33:57.392Z,1.53
2023-03-18T17:36:26.343Z,2.10
2023-03-18T17:39:00.099Z,1.80
2023-03-18T17:41:36.057Z,1.43
2023-03-18T17:44:05.141Z,3.50
2023-03-18T17:46:34.713Z,1.90
2023-03-18T17:49:04.660Z,1.30
2023-03-18T17:51:34.767Z,2.13
2023-03-18T17:54:05.815Z,1.80
2023-03-18T17:56:38.207Z,1.33
2023-03-18T17:59:08.881Z,2.10
2023-03-18T18:01:37.605Z,2.07
2023-03-18T18:04:06.526Z,1.37
2023-03-18T18:06:36.323Z,1.80
2023-03-18T18:09:07.042Z,1.57
2023-03-18T18:11:39.382Z,2.00
2023-03-18T18:14:15.156Z,2.00
2023-03-18T18:16:50.347Z,2.40
2023-03-18T18:19:19.704Z,0.83
2023-03-18T18:21:55.430Z,1.50
2023-03-18T18:24:25.348Z,1.83
2023-03-18T18:26:58.238Z,1.03
2023-03-18T18:29:28.241Z,2.03
2023-03-18T18:32:01.011Z,1.70
2023-03-18T18:34:29.477Z,1.40
2023-03-18T18:37:00.610Z,1.10
2023-03-18T18:39:29.487Z,1.57
2023-03-18T18:41:59.609Z,1.17
2023-03-18T18:44:32.599Z,1.20
2023-03-18T18:47:01.173Z,0.90
2023-03-18T18:49:29.510Z,1.77
2023-03-18T18:52:00.562Z,1.23
2023-03-18T18:54:29.351Z,1.93
2023-03-18T18:56:59.475Z,1.43
2023-03-18T18:59:32.065Z,1.13
2023-03-18T19:02:07.019Z,3.20
2023-03-18T19:04:35.666Z,1.87
2023-03-18T19:07:06.968Z,1.53
2023-03-18T19:09:35.481Z,1.00
2023-03-18T19:12:17.222Z,1.63
2023-03-18T19:14:47.177Z,2.00
2023-03-18T19:17:27.097Z,1.77
2023-03-18T19:19:55.777Z,1.40
2023-03-18T19:22:27.632Z,1.93
2023-03-18T19:24:58.274Z,1.80
2023-03-18T19:27:30.024Z,1.60
2023-03-18T19:30:00.132Z,2.10
2023-03-18T19:32:32.164Z,2.00
2023-03-18T19:35:00.882Z,1.50
2023-03-18T19:37:31.066Z,1.83
2023-03-18T19:40:04.927Z,1.73
2023-03-18T19:42:35.687Z,2.30
2023-03-18T19:45:04.111Z,1.83
2023-03-18T19:47:32.745Z,1.53
2023-03-18T19:50:01.722Z,2.33
2023-03-18T19:52:30.707Z,2.10
2023-03-18T19:54:59.268Z,1.90
2023-03-18T19:57:28.499Z,1.90
2023-03-18T20:00:00.796Z,1.40
2023-03-18T20:02:31.816Z,1.87
2023-03-18T20:05:01.558Z,1.37
2023-03-18T20:07:31.469Z,2.00
2023-03-18T20:10:08.713Z,2.43
2023-03-18T20:12:39.906Z,2.23
2023-03-18T20:15:29.493Z,2.17
2023-03-18T20:18:01.321Z,2.93
2023-03-18T20:20:35.577Z,2.67
2023-03-18T20:23:05.349Z,1.60
2023-03-18T20:25:38.474Z,2.47
2023-03-18T20:28:08.385Z,1.90
2023-03-18T20:30:43.241Z,1.70
2023-03-18T20:33:13.303Z,2.00
2023-03-18T20:35:43.060Z,2.00
2023-03-18T20:38:14.778Z,1.80
2023-03-18T20:40:44.014Z,2.07
2023-03-18T20:43:15.350Z,1.30
2023-03-18T20:45:43.912Z,1.83
2023-03-18T20:48:14.319Z,2.93
2023-03-18T20:50:46.691Z,2.90
2023-03-18T20:53:17.679Z,3.20
2023-03-18T20:55:46.827Z,2.40
2023-03-18T20:58:16.638Z,2.87
2023-03-18T21:00:46.612Z,2.70
2023-03-18T21:03:26.930Z,2.63
2023-03-18T21:05:57.412Z,2.40
2023-03-18T21:08:26.650Z,3.37
2023-03-18T21:10:56.224Z,2.50
2023-03-18T21:13:28.211Z,1.80
2023-03-18T21:15:56.777Z,2.00
2023-03-18T21:18:27.729Z,1.90
2023-03-18T21:20:56.545Z,2.33
2023-03-18T21:23:26.357Z,1.60
2023-03-18T21:25:54.807Z,1.90
2023-03-18T21:28:37.313Z,2.20
2023-03-18T21:31:06.144Z,2.00
2023-03-18T21:33:37.239Z,2.30
2023-03-18T21:36:06.628Z,1.43
2023-03-18T21:38:36.080Z,2.00
2023-03-18T21:41:04.370Z,1.77
2023-03-18T21:43:34.890Z,1.70
2023-03-18T21:46:04.142Z,1.93
2023-03-18T21:48:32.922Z,2.10
2023-03-18T21:51:03.047Z,2.10
2023-03-18T21:53:31.957Z,2.20
2023-03-18T21:56:00.416Z,2.17
2023-03-18T21:58:29.384Z,2.00
2023-03-18T22:00:59.307Z,1.80
2023-03-18T22:03:29.583Z,1.83
2023-03-18T22:05:58.488Z,1.87
2023-03-18T22:08:28.445Z,1.47
2023-03-18T22:10:56.953Z,2.90
2023-03-18T22:13:26.636Z,2.07
2023-03-18T22:15:56.097Z,2.00
2023-03-18T22:18:25.650Z,1.73
2023-03-18T22:20:54.375Z,2.33
2023-03-18T22:23:23.805Z,2.03
2023-03-18T22:25:54.880Z,2.50
2023-03-18T22:28:24.372Z,2.33
2023-03-18T22:30:55.353Z,2.50
2023-03-18T22:33:26.814Z,2.40
2023-03-18T22:35:55.619Z,2.30
2023-03-18T22:38:25.527Z,2.40
2023-03-18T22:40:57.660Z,2.40
2023-03-18T22:43:29.720Z,2.53
2023-03-18T22:45:58.540Z,2.80
2023-03-18T22:48:27.525Z,2.63
2023-03-18T22:50:56.682Z,2.20
2023-03-18T22:53:27.423Z,2.30
2023-03-18T22:55:57.872Z,2.97
2023-03-18T22:58:27.207Z,3.40
2023-03-18T23:00:57.608Z,3.10
2023-03-18T23:03:28.871Z,2.83
2023-03-18T23:05:58.518Z,2.77
2023-03-18T23:08:27.694Z,3.03
2023-03-18T23:10:58.232Z,2.27
2023-03-18T23:13:28.973Z,3.00
2023-03-18T23:15:58.697Z,3.17
2023-03-18T23:18:27.253Z,2.93
2023-03-18T23:20:56.052Z,2.73
2023-03-18T23:23:36.317Z,2.97
2023-03-18T23:26:11.513Z,2.33
2023-03-18T23:28:47.159Z,2.30
2023-03-18T23:31:16.780Z,2.40
2023-03-18T23:33:57.524Z,2.43
2023-03-18T23:36:39.729Z,2.90
2023-03-18T23:39:08.180Z,3.50
2023-03-18T23:41:38.760Z,2.83
2023-03-18T23:44:08.124Z,3.53
2023-03-18T23:46:37.145Z,3.60
2023-03-18T23:49:05.854Z,2.67
2023-03-18T23:51:34.264Z,3.20
2023-03-18T23:54:02.867Z,2.83
2023-03-18T23:56:31.600Z,3.30
2023-03-18T23:59:09.307Z,2.93
